sensor_id;sensor_type;location;lat;lon;timestamp;temperature;humidity
66708;DHT22;53622;0.000;0.000;2024-01-15T00:00:24;20.10;43.50
66708;DHT22;53622;0.000;0.000;2024-01-15T00:02:53;20.10;43.60
66708;DHT22;53622;0.000;0.000;2024-01-15T00:05:21;20.10;43.60
66708;DHT22;53622;0.000;0.000;2024-01-15T00:07:49;20.10;43.50
66708;DHT22;53622;0.000;0.000;2024-01-15T00:10:18;20.10;43.50
66708;DHT22;53622;0.000;0.000;2024-01-15T00:12:47;20.00;43.40
66708;DHT22;53622;0.000;0.000;2024-01-15T00:15:16;20.00;43.40
66708;DHT22;53622;0.000;0.000;2024-01-15T00:17:46;20.00;43.30
66708;DHT22;53622;0.000;0.000;2024-01-15T00:20:14;20.00;43.40
66708;DHT22;53622;0.000;0.000;2024-01-15T00:22:43;20.00;43.40
66708;DHT22;53622;0.000;0.000;2024-01-15T00:25:12;20.00;43.40
66708;DHT22;53622;0.000;0.000;2024-01-15T00:27:41;20.10;44.50
66708;DHT22;53622;0.000;0.000;2024-01-15T00:30:10;20.10;43.70
66708;DHT22;53622;0.000;0.000;2024-01-15T00:32:39;20.00;43.40
66708;DHT22;53622;0.000;0.000;2024-01-15T00:35:10;20.00;43.50
66708;DHT22;53622;0.000;0.000;2024-01-15T00:37:39;19.90;43.40
66708;DHT22;53622;0.000;0.000;2024-01-15T00:40:08;19.90;43.50
66708;DHT22;53622;0.000;0.000;2024-01-15T00:42:37;19.90;43.50
66708;DHT22;53622;0.000;0.000;2024-01-15T00:45:06;19.90;43.50
66708;DHT22;53622;0.000;0.000;2024-01-15T00:47:36;19.90;43.20
66708;DHT22;53622;0.000;0.000;2024-01-15T00:50:05;19.90;43.40
66708;DHT22;53622;0.000;0.000;2024-01-15T00:52:36;19.90;43.30
66708;DHT22;53622;0.000;0.000;2024-01-15T00:55:05;19.90;43.40
66708;DHT22;53622;0.000;0.000;2024-01-15T00:57:34;19.80;43.40
66708;DHT22;53622;0.000;0.000;2024-01-15T01:00:03;19.80;43.40
66708;DHT22;53622;0.000;0.000;2024-01-15T01:02:33;19.80;43.70
66708;DHT22;53622;0.000;0.000;2024-01-15T01:05:02;19.80;43.10
66708;DHT22;53622;0.000;0.000;2024-01-15T01:07:31;19.80;43.00
66708;DHT22;53622;0.000;0.000;2024-01-15T01:10:02;19.80;43.10
66708;DHT22;53622;0.000;0.000;2024-01-15T01:12:31;19.80;43.00
66708;DHT22;53622;0.000;0.000;2024-01-15T01:15:00;19.70;43.00
66708;DHT22;53622;0.000;0.000;2024-01-15T01:17:28;19.70;43.10
66708;DHT22;53622;0.000;0.000;2024-01-15T01:19:58;19.70;43.00
66708;DHT22;53622;0.000;0.000;2024-01-15T01:22:27;19.70;43.10
66708;DHT22;53622;0.000;0.000;2024-01-15T01:24:56;19.70;43.00
66708;DHT22;53622;0.000;0.000;2024-01-15T01:27:26;19.70;43.00
66708;DHT22;53622;0.000;0.000;2024-01-15T01:29:55;19.70;43.00
66708;DHT22;53622;0.000;0.000;2024-01-15T01:32:23;19.90;42.80
66708;DHT22;53622;0.000;0.000;2024-01-15T01:34:52;19.80;42.60
66708;DHT22;53622;0.000;0.000;2024-01-15T01:37:21;19.80;42.90
66708;DHT22;53622;0.000;0.000;2024-01-15T01:39:49;19.70;42.70
66708;DHT22;53622;0.000;0.000;2024-01-15T01:42:18;19.70;43.00
66708;DHT22;53622;0.000;0.000;2024-01-15T01:44:48;19.60;42.90
66708;DHT22;53622;0.000;0.000;2024-01-15T01:47:17;19.70;43.50
66708;DHT22;53622;0.000;0.000;2024-01-15T01:49:46;19.60;42.80
66708;DHT22;53622;0.000;0.000;2024-01-15T01:52:15;19.60;43.00
66708;DHT22;53622;0.000;0.000;2024-01-15T01:54:44;19.60;42.90
66708;DHT22;53622;0.000;0.000;2024-01-15T01:57:14;19.60;42.90
66708;DHT22;53622;0.000;0.000;2024-01-15T01:59:44;19.50;42.90
66708;DHT22;53622;0.000;0.000;2024-01-15T02:02:15;19.60;42.80
66708;DHT22;53622;0.000;0.000;2024-01-15T02:04:44;19.60;42.80
66708;DHT22;53622;0.000;0.000;2024-01-15T02:07:15;19.50;42.80
66708;DHT22;53622;0.000;0.000;2024-01-15T02:09:45;19.60;42.90
66708;DHT22;53622;0.000;0.000;2024-01-15T02:12:14;19.50;42.90
66708;DHT22;53622;0.000;0.000;2024-01-15T02:14:42;19.50;42.80
66708;DHT22;53622;0.000;0.000;2024-01-15T02:17:11;19.50;42.80
66708;DHT22;53622;0.000;0.000;2024-01-15T02:19:41;19.50;42.90
66708;DHT22;53622;0.000;0.000;2024-01-15T02:22:10;19.50;42.90
66708;DHT22;53622;0.000;0.000;2024-01-15T02:24:40;19.50;42.90
66708;DHT22;53622;0.000;0.000;2024-01-15T02:27:09;19.50;42.90
66708;DHT22;53622;0.000;0.000;2024-01-15T02:29:38;19.50;42.90
66708;DHT22;53622;0.000;0.000;2024-01-15T02:32:08;19.50;43.00
66708;DHT22;53622;0.000;0.000;2024-01-15T02:34:37;19.40;42.90
66708;DHT22;53622;0.000;0.000;2024-01-15T02:37:06;19.40;42.80
66708;DHT22;53622;0.000;0.000;2024-01-15T02:39:35;19.40;42.80
66708;DHT22;53622;0.000;0.000;2024-01-15T02:42:05;19.40;42.90
66708;DHT22;53622;0.000;0.000;2024-01-15T02:44:34;19.40;42.90
66708;DHT22;53622;0.000;0.000;2024-01-15T02:47:03;19.40;42.90
66708;DHT22;53622;0.000;0.000;2024-01-15T02:49:32;19.40;43.00
66708;DHT22;53622;0.000;0.000;2024-01-15T02:52:01;19.40;43.00
66708;DHT22;53622;0.000;0.000;2024-01-15T02:54:30;19.40;42.90
66708;DHT22;53622;0.000;0.000;2024-01-15T02:56:59;19.40;42.80
66708;DHT22;53622;0.000;0.000;2024-01-15T02:59:29;19.30;42.90
66708;DHT22;53622;0.000;0.000;2024-01-15T03:01:57;19.30;42.80
66708;DHT22;53622;0.000;0.000;2024-01-15T03:04:26;19.30;42.80
66708;DHT22;53622;0.000;0.000;2024-01-15T03:06:55;19.30;42.80
66708;DHT22;53622;0.000;0.000;2024-01-15T03:09:24;19.30;43.00
66708;DHT22;53622;0.000;0.000;2024-01-15T03:11:53;19.30;42.90
66708;DHT22;53622;0.000;0.000;2024-01-15T03:14:21;19.30;42.80
66708;DHT22;53622;0.000;0.000;2024-01-15T03:16:53;19.30;43.00
66708;DHT22;53622;0.000;0.000;2024-01-15T03:19:22;19.30;43.00
66708;DHT22;53622;0.000;0.000;2024-01-15T03:21:51;19.30;42.80
66708;DHT22;53622;0.000;0.000;2024-01-15T03:24:20;19.30;43.30
66708;DHT22;53622;0.000;0.000;2024-01-15T03:26:48;19.30;42.90
66708;DHT22;53622;0.000;0.000;2024-01-15T03:29:17;19.30;43.00
66708;DHT22;53622;0.000;0.000;2024-01-15T03:31:46;19.30;43.00
66708;DHT22;53622;0.000;0.000;2024-01-15T03:34:16;19.30;43.00
66708;DHT22;53622;0.000;0.000;2024-01-15T03:36:45;19.30;42.90
66708;DHT22;53622;0.000;0.000;2024-01-15T03:39:14;19.30;43.00
66708;DHT22;53622;0.000;0.000;2024-01-15T03:41:43;19.30;43.00
66708;DHT22;53622;0.000;0.000;2024-01-15T03:44:12;19.20;42.90
66708;DHT22;53622;0.000;0.000;2024-01-15T03:46:41;19.20;43.00
66708;DHT22;53622;0.000;0.000;2024-01-15T03:49:09;19.20;43.00
66708;DHT22;53622;0.000;0.000;2024-01-15T03:51:39;19.20;43.00
66708;DHT22;53622;0.000;0.000;2024-01-15T03:54:08;19.20;43.00
66708;DHT22;53622;0.000;0.000;2024-01-15T03:56:37;19.20;43.00
66708;DHT22;53622;0.000;0.000;2024-01-15T03:59:06;19.20;43.10
66708;DHT22;53622;0.000;0.000;2024-01-15T04:01:34;19.10;43.00
66708;DHT22;53622;0.000;0.000;2024-01-15T04:04:03;19.10;42.90
66708;DHT22;53622;0.000;0.000;2024-01-15T04:06:32;19.10;42.90
66708;DHT22;53622;0.000;0.000;2024-01-15T04:09:02;19.10;43.00
66708;DHT22;53622;0.000;0.000;2024-01-15T04:11:31;19.10;43.00
66708;DHT22;53622;0.000;0.000;2024-01-15T04:14:00;19.10;43.00
66708;DHT22;53622;0.000;0.000;2024-01-15T04:16:28;19.10;43.00
66708;DHT22;53622;0.000;0.000;2024-01-15T04:18:57;19.10;43.00
66708;DHT22;53622;0.000;0.000;2024-01-15T04:21:26;19.10;43.10
66708;DHT22;53622;0.000;0.000;2024-01-15T04:23:55;19.10;43.00
66708;DHT22;53622;0.000;0.000;2024-01-15T04:26:25;19.10;43.00
66708;DHT22;53622;0.000;0.000;2024-01-15T04:28:53;19.10;43.00
66708;DHT22;53622;0.000;0.000;2024-01-15T04:31:23;19.10;43.10
66708;DHT22;53622;0.000;0.000;2024-01-15T04:33:52;19.10;43.10
66708;DHT22;53622;0.000;0.000;2024-01-15T04:36:21;19.10;43.00
66708;DHT22;53622;0.000;0.000;2024-01-15T04:38:50;19.00;43.00
66708;DHT22;53622;0.000;0.000;2024-01-15T04:41:19;19.10;43.10
66708;DHT22;53622;0.000;0.000;2024-01-15T04:43:49;19.10;43.60
66708;DHT22;53622;0.000;0.000;2024-01-15T04:46:18;19.10;42.80
66708;DHT22;53622;0.000;0.000;2024-01-15T04:48:47;19.10;43.10
66708;DHT22;53622;0.000;0.000;2024-01-15T04:51:15;19.10;43.00
66708;DHT22;53622;0.000;0.000;2024-01-15T04:53:44;19.10;43.00
66708;DHT22;53622;0.000;0.000;2024-01-15T04:56:13;19.10;42.90
66708;DHT22;53622;0.000;0.000;2024-01-15T04:58:42;19.10;43.00
66708;DHT22;53622;0.000;0.000;2024-01-15T05:01:12;19.10;43.10
66708;DHT22;53622;0.000;0.000;2024-01-15T05:03:41;19.10;43.10
66708;DHT22;53622;0.000;0.000;2024-01-15T05:06:10;19.00;43.00
66708;DHT22;53622;0.000;0.000;2024-01-15T05:08:39;19.00;43.10
66708;DHT22;53622;0.000;0.000;2024-01-15T05:11:07;18.90;43.00
66708;DHT22;53622;0.000;0.000;2024-01-15T05:13:36;19.00;43.00
66708;DHT22;53622;0.000;0.000;2024-01-15T05:16:05;19.00;43.10
66708;DHT22;53622;0.000;0.000;2024-01-15T05:18:35;19.00;43.20
66708;DHT22;53622;0.000;0.000;2024-01-15T05:21:04;19.00;43.10
66708;DHT22;53622;0.000;0.000;2024-01-15T05:23:34;19.00;43.10
66708;DHT22;53622;0.000;0.000;2024-01-15T05:26:03;19.00;43.10
66708;DHT22;53622;0.000;0.000;2024-01-15T05:28:32;19.00;43.10
66708;DHT22;53622;0.000;0.000;2024-01-15T05:31:01;18.90;43.00
66708;DHT22;53622;0.000;0.000;2024-01-15T05:33:30;18.90;43.00
66708;DHT22;53622;0.000;0.000;2024-01-15T05:36:01;18.90;43.30
66708;DHT22;53622;0.000;0.000;2024-01-15T05:38:29;18.90;43.30
66708;DHT22;53622;0.000;0.000;2024-01-15T05:40:58;18.80;43.60
66708;DHT22;53622;0.000;0.000;2024-01-15T05:43:27;18.90;43.90
66708;DHT22;53622;0.000;0.000;2024-01-15T05:45:56;18.90;44.10
66708;DHT22;53622;0.000;0.000;2024-01-15T05:48:25;18.90;45.90
66708;DHT22;53622;0.000;0.000;2024-01-15T05:50:53;19.20;46.20
66708;DHT22;53622;0.000;0.000;2024-01-15T05:53:23;19.10;46.70
66708;DHT22;53622;0.000;0.000;2024-01-15T05:55:52;19.00;46.50
66708;DHT22;53622;0.000;0.000;2024-01-15T05:58:21;19.00;46.50
66708;DHT22;53622;0.000;0.000;2024-01-15T06:10:49;18.80;72.40
66708;DHT22;53622;0.000;0.000;2024-01-15T06:13:18;18.90;74.10
66708;DHT22;53622;0.000;0.000;2024-01-15T06:15:47;18.90;76.70
66708;DHT22;53622;0.000;0.000;2024-01-15T06:25:48;18.60;63.30
66708;DHT22;53622;0.000;0.000;2024-01-15T06:28:17;18.70;66.70
66708;DHT22;53622;0.000;0.000;2024-01-15T06:30:46;18.70;67.10
66708;DHT22;53622;0.000;0.000;2024-01-15T06:33:15;18.60;66.50
66708;DHT22;53622;0.000;0.000;2024-01-15T06:35:44;18.60;69.80
66708;DHT22;53622;0.000;0.000;2024-01-15T06:43:21;18.50;57.80
66708;DHT22;53622;0.000;0.000;2024-01-15T06:45:50;18.60;61.60
66708;DHT22;53622;0.000;0.000;2024-01-15T06:48:18;18.60;56.80
66708;DHT22;53622;0.000;0.000;2024-01-15T06:50:47;18.60;55.40
66708;DHT22;53622;0.000;0.000;2024-01-15T06:53:16;18.60;52.50
66708;DHT22;53622;0.000;0.000;2024-01-15T06:55:45;18.60;51.20
66708;DHT22;53622;0.000;0.000;2024-01-15T06:58:13;18.60;51.40
66708;DHT22;53622;0.000;0.000;2024-01-15T07:00:43;18.70;49.80
66708;DHT22;53622;0.000;0.000;2024-01-15T07:03:12;18.60;49.30
66708;DHT22;53622;0.000;0.000;2024-01-15T07:05:41;18.60;48.50
66708;DHT22;53622;0.000;0.000;2024-01-15T07:08:10;18.60;48.60
66708;DHT22;53622;0.000;0.000;2024-01-15T07:10:39;18.60;46.10
66708;DHT22;53622;0.000;0.000;2024-01-15T07:13:09;18.60;46.10
66708;DHT22;53622;0.000;0.000;2024-01-15T07:15:37;18.60;46.00
66708;DHT22;53622;0.000;0.000;2024-01-15T07:18:08;18.60;46.10
66708;DHT22;53622;0.000;0.000;2024-01-15T07:20:37;18.60;46.10
66708;DHT22;53622;0.000;0.000;2024-01-15T07:23:06;18.60;46.00
66708;DHT22;53622;0.000;0.000;2024-01-15T07:25:35;18.70;46.10
66708;DHT22;53622;0.000;0.000;2024-01-15T07:28:04;18.70;46.10
66708;DHT22;53622;0.000;0.000;2024-01-15T07:30:33;18.70;46.10
66708;DHT22;53622;0.000;0.000;2024-01-15T07:33:02;18.70;46.10
66708;DHT22;53622;0.000;0.000;2024-01-15T07:35:33;18.70;46.10
66708;DHT22;53622;0.000;0.000;2024-01-15T07:38:02;18.70;46.10
66708;DHT22;53622;0.000;0.000;2024-01-15T07:40:30;18.60;46.00
66708;DHT22;53622;0.000;0.000;2024-01-15T07:42:59;18.70;46.10
66708;DHT22;53622;0.000;0.000;2024-01-15T07:45:28;18.60;46.00
66708;DHT22;53622;0.000;0.000;2024-01-15T07:47:56;18.60;46.00
66708;DHT22;53622;0.000;0.000;2024-01-15T07:50:25;18.60;46.10
66708;DHT22;53622;0.000;0.000;2024-01-15T07:52:55;18.60;46.70
66708;DHT22;53622;0.000;0.000;2024-01-15T07:55:24;18.60;46.10
66708;DHT22;53622;0.000;0.000;2024-01-15T07:57:53;18.80;45.80
66708;DHT22;53622;0.000;0.000;2024-01-15T08:00:41;18.80;45.60
66708;DHT22;53622;0.000;0.000;2024-01-15T08:03:11;18.70;45.60
66708;DHT22;53622;0.000;0.000;2024-01-15T08:05:39;18.70;45.80
66708;DHT22;53622;0.000;0.000;2024-01-15T08:08:09;18.60;45.70
66708;DHT22;53622;0.000;0.000;2024-01-15T08:10:38;18.60;45.80
66708;DHT22;53622;0.000;0.000;2024-01-15T08:13:07;18.60;45.90
66708;DHT22;53622;0.000;0.000;2024-01-15T08:15:36;18.60;45.90
66708;DHT22;53622;0.000;0.000;2024-01-15T08:18:05;18.60;45.90
66708;DHT22;53622;0.000;0.000;2024-01-15T08:20:34;18.50;45.70
66708;DHT22;53622;0.000;0.000;2024-01-15T08:23:03;18.60;45.80
66708;DHT22;53622;0.000;0.000;2024-01-15T08:25:33;18.50;45.80
66708;DHT22;53622;0.000;0.000;2024-01-15T08:28:03;18.50;45.80
66708;DHT22;53622;0.000;0.000;2024-01-15T08:30:31;18.50;45.80
66708;DHT22;53622;0.000;0.000;2024-01-15T08:33:00;18.60;45.90
66708;DHT22;53622;0.000;0.000;2024-01-15T08:35:37;18.60;45.70
66708;DHT22;53622;0.000;0.000;2024-01-15T08:38:06;18.50;45.60
66708;DHT22;53622;0.000;0.000;2024-01-15T08:40:36;18.50;45.80
66708;DHT22;53622;0.000;0.000;2024-01-15T08:43:05;18.50;45.90
66708;DHT22;53622;0.000;0.000;2024-01-15T08:45:34;18.50;45.70
66708;DHT22;53622;0.000;0.000;2024-01-15T08:48:03;18.50;45.80
66708;DHT22;53622;0.000;0.000;2024-01-15T08:50:32;18.40;45.70
66708;DHT22;53622;0.000;0.000;2024-01-15T08:53:01;18.40;45.70
66708;DHT22;53622;0.000;0.000;2024-01-15T08:55:30;18.40;45.70
66708;DHT22;53622;0.000;0.000;2024-01-15T08:58:00;18.40;45.60
66708;DHT22;53622;0.000;0.000;2024-01-15T09:00:29;18.40;45.70
66708;DHT22;53622;0.000;0.000;2024-01-15T09:02:58;18.40;45.60
66708;DHT22;53622;0.000;0.000;2024-01-15T09:05:27;18.40;45.60
66708;DHT22;53622;0.000;0.000;2024-01-15T09:07:56;18.40;45.60
66708;DHT22;53622;0.000;0.000;2024-01-15T09:10:25;18.40;45.40
66708;DHT22;53622;0.000;0.000;2024-01-15T09:12:53;18.40;45.40
66708;DHT22;53622;0.000;0.000;2024-01-15T09:15:24;18.40;45.40
66708;DHT22;53622;0.000;0.000;2024-01-15T09:17:52;18.30;45.30
66708;DHT22;53622;0.000;0.000;2024-01-15T09:20:21;18.30;45.40
66708;DHT22;53622;0.000;0.000;2024-01-15T09:22:50;18.30;45.40
66708;DHT22;53622;0.000;0.000;2024-01-15T09:25:19;18.30;45.30
66708;DHT22;53622;0.000;0.000;2024-01-15T09:27:48;18.30;45.40
66708;DHT22;53622;0.000;0.000;2024-01-15T09:30:17;18.30;45.50
66708;DHT22;53622;0.000;0.000;2024-01-15T09:32:47;18.30;45.20
66708;DHT22;53622;0.000;0.000;2024-01-15T09:35:16;18.30;45.20
66708;DHT22;53622;0.000;0.000;2024-01-15T09:37:44;18.30;45.20
66708;DHT22;53622;0.000;0.000;2024-01-15T09:40:15;18.30;45.40
66708;DHT22;53622;0.000;0.000;2024-01-15T09:42:44;18.30;45.20
66708;DHT22;53622;0.000;0.000;2024-01-15T09:45:14;18.30;45.20
66708;DHT22;53622;0.000;0.000;2024-01-15T09:47:44;18.30;45.10
66708;DHT22;53622;0.000;0.000;2024-01-15T09:50:14;18.30;45.10
66708;DHT22;53622;0.000;0.000;2024-01-15T09:52:44;18.30;45.30
66708;DHT22;53622;0.000;0.000;2024-01-15T09:55:13;18.30;45.10
66708;DHT22;53622;0.000;0.000;2024-01-15T09:57:44;18.30;45.10
66708;DHT22;53622;0.000;0.000;2024-01-15T10:00:17;18.30;45.10
66708;DHT22;53622;0.000;0.000;2024-01-15T10:02:47;18.30;45.10
66708;DHT22;53622;0.000;0.000;2024-01-15T10:05:18;18.30;45.00
66708;DHT22;53622;0.000;0.000;2024-01-15T10:07:48;18.40;45.00
66708;DHT22;53622;0.000;0.000;2024-01-15T10:10:18;18.30;44.90
66708;DHT22;53622;0.000;0.000;2024-01-15T10:12:46;18.30;45.00
66708;DHT22;53622;0.000;0.000;2024-01-15T10:15:15;18.30;45.00
66708;DHT22;53622;0.000;0.000;2024-01-15T10:17:45;18.20;45.00
66708;DHT22;53622;0.000;0.000;2024-01-15T10:20:14;18.20;45.10
66708;DHT22;53622;0.000;0.000;2024-01-15T10:22:45;18.20;45.20
66708;DHT22;53622;0.000;0.000;2024-01-15T10:25:14;18.30;45.20
66708;DHT22;53622;0.000;0.000;2024-01-15T10:27:44;18.30;45.40
66708;DHT22;53622;0.000;0.000;2024-01-15T10:30:13;18.30;45.90
66708;DHT22;53622;0.000;0.000;2024-01-15T10:32:57;18.30;45.50
66708;DHT22;53622;0.000;0.000;2024-01-15T10:35:28;18.30;45.70
66708;DHT22;53622;0.000;0.000;2024-01-15T10:37:58;18.30;45.80
66708;DHT22;53622;0.000;0.000;2024-01-15T10:40:28;18.30;45.80
66708;DHT22;53622;0.000;0.000;2024-01-15T10:42:57;18.30;45.90
66708;DHT22;53622;0.000;0.000;2024-01-15T10:45:26;18.30;46.00
66708;DHT22;53622;0.000;0.000;2024-01-15T10:47:55;18.30;46.10
66708;DHT22;53622;0.000;0.000;2024-01-15T10:50:26;18.30;46.50
66708;DHT22;53622;0.000;0.000;2024-01-15T10:52:58;18.30;46.20
66708;DHT22;53622;0.000;0.000;2024-01-15T10:55:26;18.30;46.10
66708;DHT22;53622;0.000;0.000;2024-01-15T10:57:57;18.20;46.10
66708;DHT22;53622;0.000;0.000;2024-01-15T11:00:26;18.30;46.10
66708;DHT22;53622;0.000;0.000;2024-01-15T11:02:55;18.30;46.10
66708;DHT22;53622;0.000;0.000;2024-01-15T11:05:25;18.30;46.10
66708;DHT22;53622;0.000;0.000;2024-01-15T11:07:55;18.30;46.00
66708;DHT22;53622;0.000;0.000;2024-01-15T11:10:42;18.40;45.80
66708;DHT22;53622;0.000;0.000;2024-01-15T11:13:14;18.40;45.70
66708;DHT22;53622;0.000;0.000;2024-01-15T11:16:00;18.40;45.70
66708;DHT22;53622;0.000;0.000;2024-01-15T11:18:30;18.30;46.30
66708;DHT22;53622;0.000;0.000;2024-01-15T11:21:20;18.30;45.70
66708;DHT22;53622;0.000;0.000;2024-01-15T11:23:53;18.30;45.70
66708;DHT22;53622;0.000;0.000;2024-01-15T11:26:33;18.20;45.70
66708;DHT22;53622;0.000;0.000;2024-01-15T11:29:04;18.20;45.60
66708;DHT22;53622;0.000;0.000;2024-01-15T11:31:56;18.20;45.60
66708;DHT22;53622;0.000;0.000;2024-01-15T11:34:54;18.20;45.70
66708;DHT22;53622;0.000;0.000;2024-01-15T11:37:27;18.20;45.60
66708;DHT22;53622;0.000;0.000;2024-01-15T11:40:01;18.20;45.60
66708;DHT22;53622;0.000;0.000;2024-01-15T11:42:33;18.20;45.60
66708;DHT22;53622;0.000;0.000;2024-01-15T11:45:02;18.20;45.50
66708;DHT22;53622;0.000;0.000;2024-01-15T11:48:11;18.20;45.60
66708;DHT22;53622;0.000;0.000;2024-01-15T11:50:42;18.20;45.50
66708;DHT22;53622;0.000;0.000;2024-01-15T11:53:19;18.20;45.50
66708;DHT22;53622;0.000;0.000;2024-01-15T11:55:51;18.10;45.50
66708;DHT22;53622;0.000;0.000;2024-01-15T11:58:22;18.10;45.50
66708;DHT22;53622;0.000;0.000;2024-01-15T12:00:51;18.10;45.50
66708;DHT22;53622;0.000;0.000;2024-01-15T12:03:22;18.10;45.50
66708;DHT22;53622;0.000;0.000;2024-01-15T12:05:52;18.10;45.60
66708;DHT22;53622;0.000;0.000;2024-01-15T12:08:22;18.10;45.50
66708;DHT22;53622;0.000;0.000;2024-01-15T12:10:51;18.10;45.50
66708;DHT22;53622;0.000;0.000;2024-01-15T12:13:22;18.10;45.60
66708;DHT22;53622;0.000;0.000;2024-01-15T12:15:50;18.10;45.40
66708;DHT22;53622;0.000;0.000;2024-01-15T12:18:19;18.10;45.40
66708;DHT22;53622;0.000;0.000;2024-01-15T12:20:48;18.10;45.40
66708;DHT22;53622;0.000;0.000;2024-01-15T12:23:17;18.10;45.40
66708;DHT22;53622;0.000;0.000;2024-01-15T12:25:46;18.10;45.50
66708;DHT22;53622;0.000;0.000;2024-01-15T12:28:15;18.10;46.00
66708;DHT22;53622;0.000;0.000;2024-01-15T12:30:47;18.10;45.60
66708;DHT22;53622;0.000;0.000;2024-01-15T12:33:18;18.10;45.50
66708;DHT22;53622;0.000;0.000;2024-01-15T12:35:48;18.10;45.40
66708;DHT22;53622;0.000;0.000;2024-01-15T12:38:19;18.10;45.40
66708;DHT22;53622;0.000;0.000;2024-01-15T12:40:48;18.10;45.40
66708;DHT22;53622;0.000;0.000;2024-01-15T12:43:17;18.10;45.40
66708;DHT22;53622;0.000;0.000;2024-01-15T12:45:47;18.00;45.30
66708;DHT22;53622;0.000;0.000;2024-01-15T12:48:16;18.00;45.40
66708;DHT22;53622;0.000;0.000;2024-01-15T12:50:47;18.00;45.50
66708;DHT22;53622;0.000;0.000;2024-01-15T12:53:15;18.00;45.50
66708;DHT22;53622;0.000;0.000;2024-01-15T12:55:45;18.00;45.40
66708;DHT22;53622;0.000;0.000;2024-01-15T12:58:14;18.00;45.50
66708;DHT22;53622;0.000;0.000;2024-01-15T13:00:47;18.00;45.50
66708;DHT22;53622;0.000;0.000;2024-01-15T13:03:17;18.00;45.50
66708;DHT22;53622;0.000;0.000;2024-01-15T13:05:46;18.00;45.50
66708;DHT22;53622;0.000;0.000;2024-01-15T13:08:15;18.00;45.50
66708;DHT22;53622;0.000;0.000;2024-01-15T13:10:43;18.00;45.40
66708;DHT22;53622;0.000;0.000;2024-01-15T13:13:12;18.00;45.50
66708;DHT22;53622;0.000;0.000;2024-01-15T13:15:41;18.00;45.50
66708;DHT22;53622;0.000;0.000;2024-01-15T13:18:11;18.00;45.40
66708;DHT22;53622;0.000;0.000;2024-01-15T13:20:40;18.10;45.40
66708;DHT22;53622;0.000;0.000;2024-01-15T13:23:09;18.00;45.40
66708;DHT22;53622;0.000;0.000;2024-01-15T13:25:39;18.00;45.40
66708;DHT22;53622;0.000;0.000;2024-01-15T13:28:07;18.00;45.50
66708;DHT22;53622;0.000;0.000;2024-01-15T13:30:36;18.00;45.50
66708;DHT22;53622;0.000;0.000;2024-01-15T13:33:06;18.00;45.40
66708;DHT22;53622;0.000;0.000;2024-01-15T13:35:37;18.00;45.40
66708;DHT22;53622;0.000;0.000;2024-01-15T13:38:06;17.90;45.90
66708;DHT22;53622;0.000;0.000;2024-01-15T13:40:36;17.90;45.50
66708;DHT22;53622;0.000;0.000;2024-01-15T13:43:05;17.90;45.50
66708;DHT22;53622;0.000;0.000;2024-01-15T13:45:35;17.90;45.60
66708;DHT22;53622;0.000;0.000;2024-01-15T13:48:05;17.90;45.50
66708;DHT22;53622;0.000;0.000;2024-01-15T13:50:37;17.90;45.40
66708;DHT22;53622;0.000;0.000;2024-01-15T13:53:05;17.90;45.60
66708;DHT22;53622;0.000;0.000;2024-01-15T13:55:35;17.90;45.50
66708;DHT22;53622;0.000;0.000;2024-01-15T13:58:04;17.90;45.40
66708;DHT22;53622;0.000;0.000;2024-01-15T14:00:33;17.90;45.50
66708;DHT22;53622;0.000;0.000;2024-01-15T14:03:02;17.90;45.50
66708;DHT22;53622;0.000;0.000;2024-01-15T14:05:32;17.90;45.50
66708;DHT22;53622;0.000;0.000;2024-01-15T14:08:02;17.90;45.50
66708;DHT22;53622;0.000;0.000;2024-01-15T14:10:31;17.90;45.60
66708;DHT22;53622;0.000;0.000;2024-01-15T14:13:00;17.90;45.60
66708;DHT22;53622;0.000;0.000;2024-01-15T14:15:29;17.90;45.50
66708;DHT22;53622;0.000;0.000;2024-01-15T14:17:58;17.90;45.60
66708;DHT22;53622;0.000;0.000;2024-01-15T14:20:28;17.90;45.50
66708;DHT22;53622;0.000;0.000;2024-01-15T14:22:57;18.00;45.60
66708;DHT22;53622;0.000;0.000;2024-01-15T14:25:27;18.00;45.40
66708;DHT22;53622;0.000;0.000;2024-01-15T14:27:56;17.90;45.40
66708;DHT22;53622;0.000;0.000;2024-01-15T14:30:24;17.90;45.50
66708;DHT22;53622;0.000;0.000;2024-01-15T14:32:53;17.90;46.10
66708;DHT22;53622;0.000;0.000;2024-01-15T14:35:22;17.90;45.40
66708;DHT22;53622;0.000;0.000;2024-01-15T14:37:51;17.90;45.50
66708;DHT22;53622;0.000;0.000;2024-01-15T14:40:19;17.90;45.40
66708;DHT22;53622;0.000;0.000;2024-01-15T14:42:49;17.80;45.40
66708;DHT22;53622;0.000;0.000;2024-01-15T14:45:19;17.80;45.40
66708;DHT22;53622;0.000;0.000;2024-01-15T14:47:48;17.80;45.40
66708;DHT22;53622;0.000;0.000;2024-01-15T14:50:17;17.80;45.50
66708;DHT22;53622;0.000;0.000;2024-01-15T14:52:46;17.80;45.50
66708;DHT22;53622;0.000;0.000;2024-01-15T14:55:14;17.80;45.50
66708;DHT22;53622;0.000;0.000;2024-01-15T14:57:43;17.80;45.50
66708;DHT22;53622;0.000;0.000;2024-01-15T15:00:14;17.80;45.50
66708;DHT22;53622;0.000;0.000;2024-01-15T15:02:44;17.80;45.40
66708;DHT22;53622;0.000;0.000;2024-01-15T15:05:13;17.80;45.50
66708;DHT22;53622;0.000;0.000;2024-01-15T15:07:44;17.80;45.90
66708;DHT22;53622;0.000;0.000;2024-01-15T15:10:13;17.80;45.90
66708;DHT22;53622;0.000;0.000;2024-01-15T15:12:42;17.80;46.10
66708;DHT22;53622;0.000;0.000;2024-01-15T15:15:12;17.80;46.40
66708;DHT22;53622;0.000;0.000;2024-01-15T15:17:47;17.70;46.40
66708;DHT22;53622;0.000;0.000;2024-01-15T15:20:16;17.80;46.50
66708;DHT22;53622;0.000;0.000;2024-01-15T15:22:46;17.80;46.50
66708;DHT22;53622;0.000;0.000;2024-01-15T15:25:15;17.80;46.40
66708;DHT22;53622;0.000;0.000;2024-01-15T15:27:44;17.80;46.30
66708;DHT22;53622;0.000;0.000;2024-01-15T15:30:14;17.80;46.30
66708;DHT22;53622;0.000;0.000;2024-01-15T15:32:43;17.80;46.10
66708;DHT22;53622;0.000;0.000;2024-01-15T15:35:12;17.80;46.00
66708;DHT22;53622;0.000;0.000;2024-01-15T15:37:41;17.80;46.20
66708;DHT22;53622;0.000;0.000;2024-01-15T15:40:10;17.80;46.40
66708;DHT22;53622;0.000;0.000;2024-01-15T15:42:40;17.80;46.40
66708;DHT22;53622;0.000;0.000;2024-01-15T15:45:09;17.80;46.30
66708;DHT22;53622;0.000;0.000;2024-01-15T15:47:41;17.90;46.30
66708;DHT22;53622;0.000;0.000;2024-01-15T15:50:10;18.00;46.20
66708;DHT22;53622;0.000;0.000;2024-01-15T15:52:38;18.10;46.10
66708;DHT22;53622;0.000;0.000;2024-01-15T15:55:08;18.10;46.00
66708;DHT22;53622;0.000;0.000;2024-01-15T15:57:37;18.20;46.00
66708;DHT22;53622;0.000;0.000;2024-01-15T16:00:06;18.20;46.10
66708;DHT22;53622;0.000;0.000;2024-01-15T16:02:42;18.30;48.20
66708;DHT22;53622;0.000;0.000;2024-01-15T16:05:11;18.40;47.70
66708;DHT22;53622;0.000;0.000;2024-01-15T16:07:39;18.40;47.10
66708;DHT22;53622;0.000;0.000;2024-01-15T16:10:08;18.50;49.00
66708;DHT22;53622;0.000;0.000;2024-01-15T16:12:38;18.60;49.10
66708;DHT22;53622;0.000;0.000;2024-01-15T16:15:17;18.70;49.60
66708;DHT22;53622;0.000;0.000;2024-01-15T16:17:49;18.80;49.80
66708;DHT22;53622;0.000;0.000;2024-01-15T16:20:37;18.80;49.00
66708;DHT22;53622;0.000;0.000;2024-01-15T16:23:26;18.90;48.80